createdAt,value
2017-05-04T00:00:31.040Z,1013.83
2017-05-04T00:01:30.767Z,1013.84
2017-05-04T00:02:30.745Z,1013.83
2017-05-04T00:03:30.721Z,1013.81
2017-05-04T00:04:30.697Z,1013.79
2017-05-04T00:05:30.675Z,1013.76
2017-05-04T00:06:30.657Z,1013.76
2017-05-04T00:07:30.628Z,1013.72
2017-05-04T00:08:30.604Z,1013.77
2017-05-04T00:09:30.582Z,1013.73
2017-05-04T00:10:30.559Z,1013.78
2017-05-04T00:11:30.535Z,1013.73
2017-05-04T00:12:30.562Z,1013.75
2017-05-04T00:13:30.492Z,1013.71
2017-05-04T00:14:30.469Z,1013.73
2017-05-04T00:15:30.502Z,1013.71
2017-05-04T00:16:30.423Z,1013.79
2017-05-04T00:17:30.402Z,1013.74
2017-05-04T00:18:30.379Z,1013.73
2017-05-04T00:19:30.357Z,1013.71
2017-05-04T00:20:30.332Z,1013.74
2017-05-04T00:21:30.309Z,1013.69
2017-05-04T00:22:30.288Z,1013.7
2017-05-04T00:23:30.263Z,1013.74
2017-05-04T00:24:30.240Z,1013.72
2017-05-04T00:25:30.218Z,1013.7
2017-05-04T00:26:30.194Z,1013.69
2017-05-04T00:27:30.174Z,1013.68
2017-05-04T00:28:30.150Z,1013.75
2017-05-04T00:29:30.125Z,1013.73
2017-05-04T00:30:30.106Z,1013.72
2017-05-04T00:31:30.080Z,1013.71
2017-05-04T00:32:30.058Z,1013.74
2017-05-04T00:33:30.034Z,1013.73
2017-05-04T00:34:30.011Z,1013.66
2017-05-04T00:35:29.986Z,1013.67
2017-05-04T00:36:29.965Z,1013.67
2017-05-04T00:37:29.942Z,1013.65
2017-05-04T00:38:29.920Z,1013.64
2017-05-04T00:39:29.895Z,1013.62
2017-05-04T00:40:29.873Z,1013.64
2017-05-04T00:41:29.851Z,1013.6
2017-05-04T00:42:29.830Z,1013.61
2017-05-04T00:43:29.805Z,1013.63
2017-05-04T00:44:29.782Z,1013.65
2017-05-04T00:45:29.762Z,1013.57
2017-05-04T00:46:29.736Z,1013.61
2017-05-04T00:47:29.719Z,1013.63
2017-05-04T00:48:29.720Z,1013.54
2017-05-04T00:49:29.673Z,1013.59
2017-05-04T00:50:29.647Z,1013.57
2017-05-04T00:51:29.674Z,1013.56
2017-05-04T00:52:29.601Z,1013.55
2017-05-04T00:53:29.577Z,1013.58
2017-05-04T00:54:29.553Z,1013.55
2017-05-04T00:55:29.530Z,1013.5
2017-05-04T00:56:29.510Z,1013.51
2017-05-04T00:57:29.490Z,1013.49
2017-05-04T00:58:29.463Z,1013.51
2017-05-04T00:59:29.445Z,1013.57
2017-05-04T01:00:29.419Z,1013.51
2017-05-04T01:01:29.397Z,1013.46
2017-05-04T01:02:29.371Z,1013.52
2017-05-04T01:03:29.348Z,1013.46
2017-05-04T01:04:29.327Z,1013.49
2017-05-04T01:05:29.305Z,1013.49
2017-05-04T01:06:29.279Z,1013.49
2017-05-04T01:07:29.259Z,1013.49
2017-05-04T01:08:29.235Z,1013.49
2017-05-04T01:09:29.215Z,1013.51
2017-05-04T01:10:29.193Z,1013.52
2017-05-04T01:11:29.166Z,1013.43
2017-05-04T01:12:29.145Z,1013.54
2017-05-04T01:13:29.120Z,1013.42
2017-05-04T01:14:29.100Z,1013.4
2017-05-04T01:15:29.075Z,1013.44
2017-05-04T01:16:29.051Z,1013.47
2017-05-04T01:17:29.028Z,1013.45
2017-05-04T01:18:29.004Z,1013.49
2017-05-04T01:19:28.985Z,1013.43
2017-05-04T01:20:28.974Z,1013.45
2017-05-04T01:21:28.937Z,1013.41
2017-05-04T01:22:28.917Z,1013.45
2017-05-04T01:23:28.895Z,1013.48
2017-05-04T01:24:28.868Z,1013.5
2017-05-04T01:25:28.898Z,1013.42
2017-05-04T01:26:28.821Z,1013.39
2017-05-04T01:27:28.804Z,1013.45
2017-05-04T01:28:28.775Z,1013.4
2017-05-04T01:29:28.752Z,1013.39
2017-05-04T01:30:28.730Z,1013.39
2017-05-04T01:31:28.705Z,1013.39
2017-05-04T01:32:28.684Z,1013.36
2017-05-04T01:33:28.661Z,1013.5
2017-05-04T01:34:28.636Z,1013.36
2017-05-04T01:35:28.615Z,1013.4
2017-05-04T01:36:28.590Z,1013.4
2017-05-04T01:37:28.572Z,1013.36
2017-05-04T01:38:28.545Z,1013.34
2017-05-04T01:39:28.521Z,1013.34
2017-05-04T01:40:28.503Z,1013.33
2017-05-04T01:41:28.477Z,1013.33
2017-05-04T01:42:28.454Z,1013.29
2017-05-04T01:43:28.429Z,1013.33
2017-05-04T01:44:28.408Z,1013.26
2017-05-04T01:45:28.387Z,1013.29
2017-05-04T01:46:28.359Z,1013.3
2017-05-04T01:47:28.339Z,1013.3
2017-05-04T01:48:28.317Z,1013.34
2017-05-04T01:49:28.299Z,1013.29
2017-05-04T01:50:28.270Z,1013.27
2017-05-04T01:51:28.248Z,1013.25
2017-05-04T01:52:28.226Z,1013.26
2017-05-04T01:53:28.201Z,1013.25
2017-05-04T01:54:28.175Z,1013.24
2017-05-04T01:55:28.152Z,1013.21
2017-05-04T01:56:28.131Z,1013.23
2017-05-04T01:57:28.108Z,1013.29
2017-05-04T01:58:28.085Z,1013.26
2017-05-04T01:59:28.060Z,1013.25
2017-05-04T02:00:28.038Z,1013.23
2017-05-04T02:01:28.015Z,1013.22
2017-05-04T02:02:27.991Z,1013.22
2017-05-04T02:03:27.971Z,1013.24
2017-05-04T02:04:27.944Z,1013.2
2017-05-04T02:05:27.924Z,1013.24
2017-05-04T02:06:27.901Z,1013.21
2017-05-04T02:07:27.880Z,1013.16
2017-05-04T02:08:27.856Z,1013.19
2017-05-04T02:09:27.833Z,1013.25
2017-05-04T02:10:27.806Z,1013.21
2017-05-04T02:11:27.785Z,1013.29
2017-05-04T02:12:27.763Z,1013.22
2017-05-04T02:13:27.738Z,1013.24
2017-05-04T02:14:27.717Z,1013.19
2017-05-04T02:15:27.691Z,1013.2
2017-05-04T02:16:27.674Z,1013.32
2017-05-04T02:17:27.646Z,1013.3
2017-05-04T02:18:27.621Z,1013.23
2017-05-04T02:19:27.599Z,1013.26
2017-05-04T02:20:27.576Z,1013.23
2017-05-04T02:21:27.557Z,1013.25
2017-05-04T02:22:27.530Z,1013.28
2017-05-04T02:23:27.508Z,1013.23
2017-05-04T02:24:27.487Z,1013.22
2017-05-04T02:25:27.463Z,1013.2
2017-05-04T02:26:27.439Z,1013.26
2017-05-04T02:27:27.417Z,1013.23
2017-05-04T02:28:27.393Z,1013.26
2017-05-04T02:29:27.368Z,1013.24
2017-05-04T02:30:27.349Z,1013.27
2017-05-04T02:31:27.325Z,1013.26
2017-05-04T02:32:27.294Z,1013.19
2017-05-04T02:33:27.279Z,1013.24
2017-05-04T02:34:27.251Z,1013.19
2017-05-04T02:35:27.229Z,1013.21
2017-05-04T02:36:27.209Z,1013.23
2017-05-04T02:37:27.183Z,1013.28
2017-05-04T02:38:27.158Z,1013.26
2017-05-04T02:39:27.138Z,1013.24
2017-05-04T02:40:27.114Z,1013.26
2017-05-04T02:41:27.087Z,1013.24
2017-05-04T02:42:27.068Z,1013.23
2017-05-04T02:43:27.049Z,1013.25
2017-05-04T02:44:27.019Z,1013.17
2017-05-04T02:45:27.024Z,1013.21
2017-05-04T02:46:26.979Z,1013.28
2017-05-04T02:47:26.952Z,1013.19
2017-05-04T02:48:26.925Z,1013.22
2017-05-04T02:49:26.906Z,1013.18
2017-05-04T02:50:26.879Z,1013.24
2017-05-04T02:51:26.860Z,1013.19
2017-05-04T02:52:26.832Z,1013.16
2017-05-04T02:53:26.810Z,1013.17
2017-05-04T02:54:26.785Z,1013.16
2017-05-04T02:55:26.765Z,1013.17
2017-05-04T02:56:26.791Z,1013.16
2017-05-04T02:57:26.718Z,1013.18
2017-05-04T02:58:26.696Z,1013.22
2017-05-04T02:59:26.670Z,1013.21
2017-05-04T03:00:26.647Z,1013.17
2017-05-04T03:01:26.624Z,1013.17
2017-05-04T03:02:26.600Z,1013.22
2017-05-04T03:03:26.578Z,1013.22
2017-05-04T03:04:26.554Z,1013.16
2017-05-04T03:05:26.531Z,1013.19
2017-05-04T03:06:26.530Z,1013.12
2017-05-04T03:07:26.483Z,1013.18
2017-05-04T03:08:26.457Z,1013.13
2017-05-04T03:09:26.437Z,1013.1
2017-05-04T03:10:26.412Z,1013.14
2017-05-04T03:11:26.389Z,1013.11
2017-05-04T03:12:26.367Z,1013.15
2017-05-04T03:13:26.344Z,1013.11
2017-05-04T03:14:26.321Z,1013.15
2017-05-04T03:15:26.297Z,1013.03
2017-05-04T03:16:26.272Z,1013.1
2017-05-04T03:17:26.251Z,1013.1
2017-05-04T03:18:26.224Z,1013.09
2017-05-04T03:19:26.202Z,1013.14
2017-05-04T03:20:26.180Z,1013.11
2017-05-04T03:21:26.204Z,1013.11
2017-05-04T03:22:26.131Z,1013.09
2017-05-04T03:23:26.107Z,1013.12
2017-05-04T03:24:26.085Z,1013.12
2017-05-04T03:25:26.063Z,1013.05
2017-05-04T03:26:26.034Z,1013.05
2017-05-04T03:27:26.011Z,1013.12
2017-05-04T03:28:25.991Z,1013.09
2017-05-04T03:29:25.969Z,1013.11
2017-05-04T03:30:25.944Z,1013.16
2017-05-04T03:31:25.922Z,1013.12
2017-05-04T03:32:25.896Z,1013.07
2017-05-04T03:33:25.874Z,1013.09
2017-05-04T03:34:25.850Z,1013.05
2017-05-04T03:35:25.829Z,1013.07
2017-05-04T03:36:25.802Z,1013.1
2017-05-04T03:37:25.778Z,1013.04
2017-05-04T03:38:25.752Z,1013.03
2017-05-04T03:39:25.733Z,1013.04
2017-05-04T03:40:25.707Z,1013.05
2017-05-04T03:41:25.685Z,1013.04
2017-05-04T03:42:25.665Z,1013.04
2017-05-04T03:43:25.637Z,1013
2017-05-04T03:44:25.614Z,1012.98
2017-05-04T03:45:25.594Z,1013.03
2017-05-04T03:46:25.568Z,1013.04
2017-05-04T03:47:25.541Z,1013.04
2017-05-04T03:48:25.518Z,1013.08
2017-05-04T03:49:25.498Z,1013.09
2017-05-04T03:50:25.473Z,1013.14
2017-05-04T03:51:25.450Z,1013.08
2017-05-04T03:52:25.426Z,1013.12
2017-05-04T03:53:25.405Z,1013.08
2017-05-04T03:54:25.376Z,1013.09
2017-05-04T03:55:25.357Z,1013.14
2017-05-04T03:56:25.331Z,1013.09
2017-05-04T03:57:25.307Z,1013.07
2017-05-04T03:58:25.285Z,1013.09
2017-05-04T03:59:25.262Z,1013.1
2017-05-04T04:00:25.239Z,1013.09
2017-05-04T04:01:25.213Z,1013.14
2017-05-04T04:02:25.189Z,1013.15
2017-05-04T04:03:25.170Z,1013.13
2017-05-04T04:04:25.144Z,1013.15
2017-05-04T04:05:25.120Z,1013.13
2017-05-04T04:06:25.097Z,1013.15
2017-05-04T04:07:25.123Z,1013.15
2017-05-04T04:08:25.049Z,1013.11
2017-05-04T04:09:25.026Z,1013.14
2017-05-04T04:10:25.007Z,1013.16
2017-05-04T04:11:24.979Z,1013.07
2017-05-04T04:12:24.960Z,1013.16
2017-05-04T04:13:24.935Z,1013.12
2017-05-04T04:14:24.910Z,1013.13
2017-05-04T04:15:24.888Z,1013.16
2017-05-04T04:16:24.861Z,1013.14
2017-05-04T04:17:24.836Z,1013.11
2017-05-04T04:18:24.817Z,1013.13
2017-05-04T04:19:24.790Z,1013.11
2017-05-04T04:20:24.768Z,1013.11
2017-05-04T04:21:24.775Z,1013.12
2017-05-04T04:22:24.724Z,1013.07
2017-05-04T04:23:24.749Z,1013.12
2017-05-04T04:24:24.675Z,1013.12
2017-05-04T04:25:24.650Z,1013.18
2017-05-04T04:26:24.626Z,1013.12
2017-05-04T04:27:24.604Z,1013.1
2017-05-04T04:28:24.584Z,1013.15
2017-05-04T04:29:24.557Z,1013.14
2017-05-04T04:30:24.532Z,1013.11
2017-05-04T04:31:24.512Z,1013.1
2017-05-04T04:33:24.462Z,1013.11
2017-05-04T04:34:24.439Z,1013.11
2017-05-04T04:35:24.418Z,1013.09
2017-05-04T04:36:24.395Z,1013.13
2017-05-04T04:37:24.370Z,1013.08
2017-05-04T04:38:24.349Z,1013.12
2017-05-04T04:39:24.325Z,1013.13
2017-05-04T04:40:24.298Z,1013.12
2017-05-04T04:41:24.272Z,1013.1
2017-05-04T04:42:24.254Z,1013.12
2017-05-04T04:43:24.228Z,1013.14
2017-05-04T04:44:24.205Z,1013.09
2017-05-04T04:45:24.182Z,1013.14
2017-05-04T04:46:24.157Z,1013.14
2017-05-04T04:47:24.135Z,1013.1
2017-05-04T04:48:24.113Z,1013.11
2017-05-04T04:49:24.086Z,1013.09
2017-05-04T04:50:24.068Z,1013.09
2017-05-04T04:51:24.042Z,1013.12
2017-05-04T04:52:24.017Z,1013.06
2017-05-04T04:53:23.994Z,1013.06
2017-05-04T04:54:23.969Z,1013.06
2017-05-04T04:55:23.947Z,1013.08
2017-05-04T04:56:23.926Z,1013.02
2017-05-04T04:57:23.900Z,1013.03
2017-05-04T04:58:23.880Z,1013.03
2017-05-04T04:59:23.854Z,1012.95
2017-05-04T05:00:23.829Z,1013.01
2017-05-04T05:01:23.806Z,1013.04
2017-05-04T05:02:23.782Z,1012.96
2017-05-04T05:03:23.761Z,1012.99
2017-05-04T05:04:23.738Z,1012.97
2017-05-04T05:05:23.713Z,1012.96
2017-05-04T05:06:23.690Z,1012.91
2017-05-04T05:07:23.665Z,1012.93
2017-05-04T05:08:23.640Z,1012.94
2017-05-04T05:09:23.617Z,1012.88
2017-05-04T05:10:23.595Z,1012.9
2017-05-04T05:11:23.572Z,1012.9
2017-05-04T05:12:23.550Z,1012.91
2017-05-04T05:13:23.526Z,1012.89
2017-05-04T05:14:23.502Z,1012.94
2017-05-04T05:15:23.479Z,1012.91
2017-05-04T05:16:23.505Z,1012.89
2017-05-04T05:17:23.431Z,1012.96
2017-05-04T05:18:23.404Z,1012.93
2017-05-04T05:19:23.384Z,1012.93
2017-05-04T05:20:23.360Z,1012.94
2017-05-04T05:21:23.338Z,1012.91
2017-05-04T05:22:23.318Z,1012.94
2017-05-04T05:23:23.293Z,1012.92
2017-05-04T05:24:23.270Z,1012.87
2017-05-04T05:25:23.293Z,1012.89
2017-05-04T05:26:23.222Z,1012.95
2017-05-04T05:27:23.197Z,1012.92
2017-05-04T05:28:23.178Z,1012.89
2017-05-04T05:29:23.153Z,1012.88
2017-05-04T05:30:23.129Z,1012.89
2017-05-04T05:31:23.115Z,1012.88
2017-05-04T05:32:23.083Z,1012.92
2017-05-04T05:33:23.066Z,1012.95
2017-05-04T05:34:23.040Z,1012.95
2017-05-04T05:35:23.015Z,1012.94
2017-05-04T05:36:22.991Z,1012.95
2017-05-04T05:37:22.970Z,1013.01
2017-05-04T05:38:22.949Z,1012.93
2017-05-04T05:39:22.922Z,1012.94
2017-05-04T05:40:22.957Z,1012.98
2017-05-04T05:41:22.879Z,1013
2017-05-04T05:42:22.853Z,1013.06
2017-05-04T05:43:22.829Z,1012.99
2017-05-04T05:44:22.801Z,1013.02
2017-05-04T05:45:22.783Z,1013
2017-05-04T05:46:22.762Z,1013.02
2017-05-04T05:47:22.741Z,1012.98
2017-05-04T05:48:22.721Z,1012.98
2017-05-04T05:49:22.690Z,1013.01
2017-05-04T05:50:22.719Z,1013.01
2017-05-04T05:51:22.648Z,1013
2017-05-04T05:52:22.626Z,1013
2017-05-04T05:53:22.601Z,1013
2017-05-04T05:54:22.577Z,1012.97
2017-05-04T05:55:22.553Z,1012.95
2017-05-04T05:56:22.533Z,1012.97
2017-05-04T05:57:22.508Z,1012.98
2017-05-04T05:58:22.490Z,1013.01
2017-05-04T05:59:22.465Z,1012.95
2017-05-04T06:00:22.495Z,1012.99
2017-05-04T06:01:22.424Z,1013.06
2017-05-04T06:02:22.398Z,1012.99
2017-05-04T06:03:22.371Z,1013.01
2017-05-04T06:04:22.354Z,1013.08
2017-05-04T06:05:22.334Z,1013.1
2017-05-04T06:06:22.309Z,1013.03
2017-05-04T06:07:22.285Z,1013.1
2017-05-04T06:08:22.294Z,1013.05
2017-05-04T06:09:22.245Z,1013.13
2017-05-04T06:10:22.221Z,1013.16
2017-05-04T06:11:22.193Z,1013.13
2017-05-04T06:12:22.200Z,1013.13
2017-05-04T06:13:22.152Z,1013.09
2017-05-04T06:14:22.129Z,1013.09
2017-05-04T06:15:22.107Z,1013.09
2017-05-04T06:16:22.089Z,1013.21
2017-05-04T06:17:22.061Z,1013.13
2017-05-04T06:18:22.040Z,1013.12
2017-05-04T06:19:22.018Z,1013.16
2017-05-04T06:20:21.995Z,1013.1
2017-05-04T06:21:22.025Z,1013.16
2017-05-04T06:22:21.949Z,1013.08
2017-05-04T06:23:21.978Z,1013.1
2017-05-04T06:24:22.157Z,1013.03
2017-05-04T06:25:21.884Z,1013.1
2017-05-04T06:26:21.864Z,1013.12
2017-05-04T06:27:21.841Z,1013.12
2017-05-04T06:28:21.814Z,1013.19
2017-05-04T06:29:21.843Z,1013.11
2017-05-04T06:30:21.822Z,1013.11
2017-05-04T06:31:21.742Z,1013.18
2017-05-04T06:32:21.727Z,1013.19
2017-05-04T06:33:21.700Z,1013.26
2017-05-04T06:34:21.679Z,1013.26
2017-05-04T06:35:21.658Z,1013.22
2017-05-04T06:36:21.637Z,1013.24
2017-05-04T06:37:21.613Z,1013.21
2017-05-04T06:38:21.588Z,1013.26
2017-05-04T06:39:21.567Z,1013.23
2017-05-04T06:40:21.543Z,1013.25
2017-05-04T06:41:21.574Z,1013.24
2017-05-04T06:42:21.518Z,1013.2
2017-05-04T06:43:21.472Z,1013.22
2017-05-04T06:44:21.450Z,1013.21
2017-05-04T06:45:21.431Z,1013.26
2017-05-04T06:46:21.409Z,1013.21
2017-05-04T06:47:21.385Z,1013.23
2017-05-04T06:48:21.363Z,1013.27
2017-05-04T06:49:21.357Z,1013.24
2017-05-04T06:50:21.319Z,1013.22
2017-05-04T06:51:21.296Z,1013.25
2017-05-04T06:52:21.274Z,1013.17
2017-05-04T06:53:21.250Z,1013.33
2017-05-04T06:54:21.229Z,1013.31
2017-05-04T06:55:21.205Z,1013.21
2017-05-04T06:56:21.208Z,1013.27
2017-05-04T06:57:21.159Z,1013.24
2017-05-04T06:58:21.138Z,1013.24
2017-05-04T06:59:21.114Z,1013.21
2017-05-04T07:00:21.091Z,1013.22
2017-05-04T07:01:21.069Z,1013.24
2017-05-04T07:02:21.050Z,1013.27
2017-05-04T07:03:21.024Z,1013.26
2017-05-04T07:04:21.002Z,1013.27
2017-05-04T07:05:20.981Z,1013.25
2017-05-04T07:06:20.958Z,1013.25
2017-05-04T07:07:20.936Z,1013.25
2017-05-04T07:08:20.914Z,1013.24
2017-05-04T07:09:20.890Z,1013.23
2017-05-04T07:10:20.869Z,1013.3
2017-05-04T07:11:20.846Z,1013.35
2017-05-04T07:12:20.823Z,1013.25
2017-05-04T07:13:20.805Z,1013.21
2017-05-04T07:14:20.778Z,1013.27
2017-05-04T07:15:20.756Z,1013.17
2017-05-04T07:16:20.732Z,1013.36
2017-05-04T07:17:20.709Z,1013.22
2017-05-04T07:18:20.687Z,1013.27
2017-05-04T07:19:20.666Z,1013.32
2017-05-04T07:20:20.645Z,1013.23
2017-05-04T07:21:20.620Z,1013.29
2017-05-04T07:22:20.598Z,1013.28
2017-05-04T07:23:20.576Z,1013.28
2017-05-04T07:24:20.554Z,1013.24
2017-05-04T07:25:20.537Z,1013.22
2017-05-04T07:26:20.520Z,1013.3
2017-05-04T07:27:20.490Z,1013.27
2017-05-04T07:28:20.477Z,1013.34
2017-05-04T07:29:20.446Z,1013.3
2017-05-04T07:30:20.423Z,1013.35
2017-05-04T07:31:20.403Z,1013.37
2017-05-04T07:32:20.381Z,1013.36
2017-05-04T07:33:20.360Z,1013.35
2017-05-04T07:34:20.337Z,1013.33
2017-05-04T07:35:20.317Z,1013.33
2017-05-04T07:36:20.293Z,1013.54
2017-05-04T07:37:20.271Z,1013.34
2017-05-04T07:38:20.249Z,1013.39
2017-05-04T07:39:20.227Z,1013.42
2017-05-04T07:40:20.205Z,1013.32
2017-05-04T07:41:20.187Z,1013.31
2017-05-04T07:42:20.161Z,1013.27
2017-05-04T07:43:20.139Z,1013.4
2017-05-04T07:44:20.117Z,1013.24
2017-05-04T07:45:20.097Z,1013.26
2017-05-04T07:46:20.075Z,1013.32
2017-05-04T07:47:20.054Z,1013.37
2017-05-04T07:48:20.033Z,1013.42
2017-05-04T07:49:20.010Z,1013.31
2017-05-04T07:50:19.991Z,1013.46
2017-05-04T07:51:19.967Z,1013.28
2017-05-04T07:52:19.948Z,1013.3
2017-05-04T07:53:19.928Z,1013.26
2017-05-04T07:54:19.906Z,1013.22
2017-05-04T07:55:19.889Z,1013.3
2017-05-04T07:56:19.863Z,1013.31
2017-05-04T07:57:19.842Z,1013.31
2017-05-04T07:58:19.823Z,1013.2
2017-05-04T07:59:19.800Z,1013.24
2017-05-04T08:00:19.786Z,1013.14
2017-05-04T08:01:19.761Z,1013.25
2017-05-04T08:02:19.740Z,1013.23
2017-05-04T08:03:19.721Z,1013.19
2017-05-04T08:04:19.703Z,1013.19
2017-05-04T08:05:19.680Z,1013.16
2017-05-04T08:06:19.662Z,1013.19
2017-05-04T08:07:19.642Z,1013.17
2017-05-04T08:08:19.625Z,1013.17
2017-05-04T08:09:19.603Z,1013.24
2017-05-04T08:10:19.582Z,1013.34
2017-05-04T08:11:19.566Z,1013.3
2017-05-04T08:12:19.547Z,1013.22
2017-05-04T08:13:19.527Z,1013.22
2017-05-04T08:14:19.508Z,1013.26
2017-05-04T08:15:19.486Z,1013.24
2017-05-04T08:16:19.474Z,1013.31
2017-05-04T08:17:19.451Z,1013.36
2017-05-04T08:18:19.432Z,1013.36
2017-05-04T08:19:19.417Z,1013.28
2017-05-04T08:20:19.696Z,1013.35
2017-05-04T08:21:19.376Z,1013.34
2017-05-04T08:22:19.360Z,1013.3
2017-05-04T08:23:19.345Z,1013.28
2017-05-04T08:24:19.324Z,1013.29
2017-05-04T08:25:19.304Z,1013.37
2017-05-04T08:26:19.290Z,1013.29
2017-05-04T08:27:19.271Z,1013.31
2017-05-04T08:28:19.255Z,1013.26
2017-05-04T08:29:19.237Z,1013.35
2017-05-04T08:30:19.219Z,1013.3
2017-05-04T08:31:19.205Z,1013.26
2017-05-04T08:32:19.186Z,1013.3
2017-05-04T08:33:19.173Z,1013.29
2017-05-04T08:34:19.153Z,1013.19
2017-05-04T08:35:19.139Z,1013.25
2017-05-04T08:36:19.122Z,1013.21
2017-05-04T08:37:19.107Z,1013.31
2017-05-04T08:38:19.088Z,1013.26
2017-05-04T08:39:19.074Z,1013.26
2017-05-04T08:40:19.306Z,1013.25
2017-05-04T08:41:19.035Z,1013.26
2017-05-04T08:42:19.017Z,1013.27
2017-05-04T08:43:19.001Z,1013.23
2017-05-04T08:44:18.981Z,1013.35
2017-05-04T08:45:18.964Z,1013.34
2017-05-04T08:46:18.946Z,1013.27
2017-05-04T08:47:18.927Z,1013.4
2017-05-04T08:48:18.913Z,1013.39
2017-05-04T08:49:18.891Z,1013.36
2017-05-04T08:50:18.872Z,1013.4
2017-05-04T08:51:18.852Z,1013.42
2017-05-04T08:52:18.834Z,1013.5
2017-05-04T08:53:18.833Z,1013.42
2017-05-04T08:54:18.797Z,1013.33
2017-05-04T08:55:18.776Z,1013.39
2017-05-04T08:56:18.757Z,1013.24
2017-05-04T08:57:18.734Z,1013.34
2017-05-04T08:58:18.717Z,1013.32
2017-05-04T08:59:18.697Z,1013.33
2017-05-04T09:00:18.690Z,1013.31
2017-05-04T09:01:18.658Z,1013.32
2017-05-04T09:02:18.641Z,1013.24
2017-05-04T09:03:18.623Z,1013.32
2017-05-04T09:04:18.600Z,1013.51
2017-05-04T09:05:18.578Z,1013.34
2017-05-04T09:06:18.560Z,1013.31
2017-05-04T09:07:18.541Z,1013.35
2017-05-04T09:08:18.521Z,1013.32
2017-05-04T09:09:18.501Z,1013.36
2017-05-04T09:10:18.487Z,1013.37
2017-05-04T09:11:18.463Z,1013.35
2017-05-04T09:12:18.441Z,1013.46
2017-05-04T09:13:18.426Z,1013.4
2017-05-04T09:14:18.403Z,1013.42
2017-05-04T09:15:18.382Z,1013.47
2017-05-04T09:16:18.366Z,1013.32
2017-05-04T09:17:18.346Z,1013.44
2017-05-04T09:18:18.342Z,1013.36
2017-05-04T09:19:18.308Z,1013.26
2017-05-04T09:20:18.291Z,1013.34
2017-05-04T09:21:18.275Z,1013.29
2017-05-04T09:22:18.555Z,1013.3
2017-05-04T09:23:18.238Z,1013.22
2017-05-04T09:24:18.218Z,1013.24
2017-05-04T09:25:18.203Z,1013.25
2017-05-04T09:26:18.187Z,1013.22
2017-05-04T09:27:18.166Z,1013.24
2017-05-04T09:28:18.145Z,1013.36
2017-05-04T09:29:18.129Z,1013.27
2017-05-04T09:30:18.112Z,1013.18
2017-05-04T09:31:18.094Z,1013.32
2017-05-04T09:32:18.075Z,1013.33
2017-05-04T09:33:18.061Z,1013.19
2017-05-04T09:34:18.035Z,1013.18
2017-05-04T09:35:18.019Z,1013.24
2017-05-04T09:36:18.000Z,1013.2
2017-05-04T09:37:17.980Z,1013.14
2017-05-04T09:38:17.962Z,1013.14
2017-05-04T09:39:17.942Z,1013.18
2017-05-04T09:40:17.925Z,1013.14
2017-05-04T09:41:17.908Z,1013.14
2017-05-04T09:42:17.887Z,1013.31
2017-05-04T09:43:17.863Z,1013.24
2017-05-04T09:44:17.846Z,1013.24
2017-05-04T09:45:17.823Z,1013.23
2017-05-04T09:46:17.805Z,1013.27
2017-05-04T09:47:17.783Z,1013.36
2017-05-04T09:48:17.764Z,1013.26
2017-05-04T09:49:17.743Z,1013.31
2017-05-04T09:50:17.725Z,1013.2
2017-05-04T09:51:17.704Z,1013.22
2017-05-04T09:52:17.683Z,1013.25
2017-05-04T09:53:17.662Z,1013.23
2017-05-04T09:54:17.642Z,1013.18
2017-05-04T09:55:17.623Z,1013.22
2017-05-04T09:56:17.600Z,1013.28
2017-05-04T09:57:17.583Z,1013.32
2017-05-04T09:58:17.567Z,1013.29
2017-05-04T09:59:17.542Z,1013.31
2017-05-04T10:00:17.520Z,1013.3
2017-05-04T10:01:17.506Z,1013.27
2017-05-04T10:02:17.488Z,1013.25
2017-05-04T10:03:17.465Z,1013.29
2017-05-04T10:04:17.447Z,1013.28
2017-05-04T10:05:17.434Z,1013.33
2017-05-04T10:06:17.406Z,1013.25
2017-05-04T10:07:17.381Z,1013.31
2017-05-04T10:08:17.375Z,1013.32
2017-05-04T10:09:17.343Z,1013.23
2017-05-04T10:10:17.322Z,1013.22
2017-05-04T10:11:17.302Z,1013.16
2017-05-04T10:12:17.289Z,1013.25
2017-05-04T10:13:17.269Z,1013.23
2017-05-04T10:14:17.245Z,1013.29
2017-05-04T10:15:17.227Z,1013.22
2017-05-04T10:16:17.206Z,1013.19
2017-05-04T10:17:17.188Z,1013.29
2017-05-04T10:18:17.167Z,1013.29
2017-05-04T10:19:17.151Z,1013.2
2017-05-04T10:20:17.133Z,1013.31
2017-05-04T10:21:17.109Z,1013.28
2017-05-04T10:22:17.090Z,1013.37
2017-05-04T10:23:17.273Z,1013.22
2017-05-04T10:24:17.052Z,1013.25
2017-05-04T10:25:17.032Z,1013.24
2017-05-04T10:26:17.011Z,1013.35
2017-05-04T10:27:16.989Z,1013.29
2017-05-04T10:28:16.980Z,1013.31
2017-05-04T10:29:16.950Z,1013.25
2017-05-04T10:30:16.931Z,1013.21
2017-05-04T10:31:16.914Z,1013.24
2017-05-04T10:32:16.898Z,1013.26
2017-05-04T10:33:16.872Z,1013.29
2017-05-04T10:34:16.853Z,1013.28
2017-05-04T10:35:16.836Z,1013.41
2017-05-04T10:36:16.811Z,1013.3
2017-05-04T10:37:16.793Z,1013.26
2017-05-04T10:38:16.775Z,1013.29
2017-05-04T10:39:16.753Z,1013.29
2017-05-04T10:40:16.734Z,1013.33
2017-05-04T10:41:16.712Z,1013.25
2017-05-04T10:42:16.692Z,1013.28
2017-05-04T10:43:16.671Z,1013.39
2017-05-04T10:44:16.654Z,1013.33
2017-05-04T10:45:16.633Z,1013.33
2017-05-04T10:46:16.611Z,1013.48
2017-05-04T10:47:16.594Z,1013.32
2017-05-04T10:48:16.568Z,1013.35
2017-05-04T10:49:16.549Z,1013.33
2017-05-04T10:50:16.528Z,1013.33
2017-05-04T10:51:16.507Z,1013.38
2017-05-04T10:52:16.492Z,1013.36
2017-05-04T10:53:16.471Z,1013.4
2017-05-04T10:54:16.456Z,1013.4
2017-05-04T10:55:16.427Z,1013.41
2017-05-04T10:56:16.405Z,1013.39
2017-05-04T10:57:16.390Z,1013.35
2017-05-04T10:58:16.365Z,1013.36
2017-05-04T10:59:16.343Z,1013.35
2017-05-04T11:00:16.326Z,1013.31
2017-05-04T11:01:16.302Z,1013.34
2017-05-04T11:02:16.286Z,1013.33
2017-05-04T11:03:16.265Z,1013.33
2017-05-04T11:04:16.239Z,1013.36
2017-05-04T11:05:16.218Z,1013.24
2017-05-04T11:06:16.197Z,1013.26
2017-05-04T11:07:16.175Z,1013.23
2017-05-04T11:08:16.154Z,1013.24
2017-05-04T11:09:16.137Z,1013.24
2017-05-04T11:10:16.112Z,1013.51
2017-05-04T11:11:16.095Z,1013.23
2017-05-04T11:12:16.073Z,1013.23
2017-05-04T11:13:16.055Z,1013.3
2017-05-04T11:14:16.030Z,1013.23
2017-05-04T11:15:16.008Z,1013.22
2017-05-04T11:16:15.991Z,1013.23
2017-05-04T11:17:15.965Z,1013.19
2017-05-04T11:18:15.947Z,1013.52
2017-05-04T11:19:15.927Z,1013.26
2017-05-04T11:20:15.905Z,1013.18
2017-05-04T11:21:15.884Z,1013.21
2017-05-04T11:22:15.864Z,1013.24
2017-05-04T11:23:15.841Z,1013.25
2017-05-04T11:24:15.820Z,1013.23
2017-05-04T11:25:15.806Z,1013.3
2017-05-04T11:26:15.780Z,1013.26
2017-05-04T11:27:15.759Z,1013.22
2017-05-04T11:28:16.037Z,1013.44
2017-05-04T11:29:15.715Z,1013.3
2017-05-04T11:30:15.699Z,1013.26
2017-05-04T11:31:15.672Z,1013.51
2017-05-04T11:32:15.654Z,1013.33
2017-05-04T11:33:15.634Z,1013.48
2017-05-04T11:34:15.609Z,1013.32
2017-05-04T11:35:15.591Z,1013.31
2017-05-04T11:36:15.568Z,1013.29
2017-05-04T11:37:15.546Z,1013.38
2017-05-04T11:38:15.524Z,1013.33
2017-05-04T11:39:15.503Z,1013.27
2017-05-04T11:40:15.484Z,1013.26
2017-05-04T11:41:15.462Z,1013.29
2017-05-04T11:42:15.443Z,1013.26
2017-05-04T11:43:15.421Z,1013.18
2017-05-04T11:44:15.399Z,1013.24
2017-05-04T11:45:15.375Z,1013.25
2017-05-04T11:46:15.355Z,1013.31
2017-05-04T11:47:15.336Z,1013.21
2017-05-04T11:48:15.311Z,1013.34
2017-05-04T11:49:15.291Z,1013.16
2017-05-04T11:50:15.269Z,1013.16
2017-05-04T11:51:15.250Z,1013.2
2017-05-04T11:52:15.226Z,1013.13
2017-05-04T11:53:15.211Z,1013.24
2017-05-04T11:54:15.186Z,1013.13
2017-05-04T11:55:15.164Z,1013.27
2017-05-04T11:56:15.146Z,1013.16
2017-05-04T11:57:15.120Z,1013.15
2017-05-04T11:58:15.101Z,1013.12
2017-05-04T11:59:15.077Z,1013.15
2017-05-04T12:00:15.067Z,1013.07
2017-05-04T12:01:15.040Z,1013.13
2017-05-04T12:02:15.013Z,1013.17
2017-05-04T12:03:14.991Z,1013.16
2017-05-04T12:04:14.969Z,1013.2
2017-05-04T12:05:14.959Z,1013.21
2017-05-04T12:06:14.946Z,1013.18
2017-05-04T12:07:14.906Z,1013.21
2017-05-04T12:08:14.886Z,1013.23
2017-05-04T12:09:14.861Z,1013.22